Time;durP1;ratioP1;P1;durP2;ratioP2;P2;SDS_P1;SDS_P2;PMS_P1;PMS_P2;Temp;Humidity;BMP_temperature;BMP_pressure;BME280_temperature;BME280_humidity;BME280_pressure;Samples;Min_cycle;Max_cycle;Signal;HPM_P1;HPM_P2
2024/02/26 00:01:53;;;;;;;5.18;3.28;;;;;;;8.60;83.79;96206.75;5136112;23;20177;-88
2024/02/26 00:03:59;;;;;;;6.13;3.70;;;;;;;8.60;83.92;96217.16;5162208;23;20183;-88
2024/02/26 00:06:03;;;;;;;4.80;3.33;;;;;;;8.58;82.59;96210.44;5136152;23;20740;-87
2024/02/26 00:08:08;;;;;;;5.00;3.20;;;;;;;8.63;83.62;96218.63;5162506;23;20189;-89
2024/02/26 00:10:10;;;;;;;6.00;3.40;;;;;;;8.63;81.96;96213.44;5137750;23;20584;-88
2024/02/26 00:12:13;;;;;;;4.65;3.20;;;;;;;8.65;82.91;96220.16;5162804;23;20178;-88
2024/02/26 00:14:16;;;;;;;4.88;3.38;;;;;;;8.64;83.71;96215.91;5189236;22;20245;-88
2024/02/26 00:16:19;;;;;;;5.53;3.15;;;;;;;8.61;81.51;96217.97;5135980;23;20256;-88
2024/02/26 00:18:23;;;;;;;4.38;2.95;;;;;;;8.62;82.59;96227.41;5137381;23;20170;-88
2024/02/26 00:20:26;;;;;;;5.20;3.25;;;;;;;8.65;82.49;96221.94;5162093;23;20204;-88
2024/02/26 00:22:29;;;;;;;5.65;3.60;;;;;;;8.64;83.39;96215.09;5135903;23;20175;-88
2024/02/26 00:24:34;;;;;;;5.97;3.60;;;;;;;8.66;83.13;96223.56;5137654;23;20178;-88
2024/02/26 00:26:37;;;;;;;4.15;2.80;;;;;;;8.69;82.50;96226.72;5136917;23;20704;-88
2024/02/26 00:28:40;;;;;;;5.20;3.10;;;;;;;8.72;82.96;96230.78;5163264;23;20181;-89
2024/02/26 00:30:44;;;;;;;4.05;2.97;;;;;;;8.71;83.41;96226.56;5162863;23;20173;-88
2024/02/26 00:32:47;;;;;;;3.75;3.08;;;;;;;8.71;82.28;96226.56;5136030;23;20692;-88
2024/02/26 00:34:51;;;;;;;4.50;3.00;;;;;;;8.74;82.51;96231.50;5134715;23;20261;-89
2024/02/26 00:36:54;;;;;;;3.97;3.17;;;;;;;8.76;82.58;96229.56;5160647;23;20949;-88
2024/02/26 00:38:57;;;;;;;4.28;3.15;;;;;;;8.77;83.06;96232.03;5189541;22;20586;-89
2024/02/26 00:41:01;;;;;;;4.80;2.50;;;;;;;8.77;81.19;96231.22;5162134;23;20197;-87
2024/02/26 00:43:05;;;;;;;4.63;3.33;;;;;;;8.78;81.32;96228.47;5136517;23;20960;-88
2024/02/26 00:45:09;;;;;;;3.00;2.55;;;;;;;8.80;81.75;96228.34;5137066;23;20608;-88
2024/02/26 00:47:11;;;;;;;5.83;3.30;;;;;;;8.79;81.17;96232.69;5137917;23;20880;-88
2024/02/26 00:49:15;;;;;;;4.60;3.50;;;;;;;8.79;81.26;96234.47;5137431;23;20572;-88
2024/02/26 00:51:18;;;;;;;4.55;3.47;;;;;;;8.77;82.40;96232.03;5137739;23;20225;-88
2024/02/26 00:53:24;;;;;;;8.07;4.97;;;;;;;8.61;83.38;96215.38;5188914;22;20235;-87
2024/02/26 00:55:28;;;;;;;7.10;4.80;;;;;;;8.52;83.16;96219.63;5137024;23;20238;-88
2024/02/26 00:57:32;;;;;;;6.32;4.75;;;;;;;8.48;83.45;96214.84;5136102;23;20643;-89
2024/02/26 00:59:36;;;;;;;6.15;4.85;;;;;;;8.50;84.08;96213.72;5137619;23;20177;-88
2024/02/26 01:01:39;;;;;;;7.78;4.78;;;;;;;8.48;84.10;96220.84;5160920;23;20201;-87
2024/02/26 01:03:42;;;;;;;6.38;4.20;;;;;;;8.49;84.16;96216.47;5137136;23;20182;-87
2024/02/26 01:05:46;;;;;;;8.55;3.75;;;;;;;8.50;83.87;96216.31;5137265;23;20251;-88
2024/02/26 01:07:49;;;;;;;7.25;4.07;;;;;;;8.52;82.50;96211.00;5137714;23;20705;-88
2024/02/26 01:09:53;;;;;;;4.40;3.40;;;;;;;8.54;83.32;96206.50;5162809;23;20173;-88
2024/02/26 01:11:56;;;;;;;7.83;4.47;;;;;;;8.57;83.45;96209.63;5188341;22;20571;-87
2024/02/26 01:14:00;;;;;;;7.32;4.00;;;;;;;8.60;83.15;96218.91;5137015;23;20589;-87
2024/02/26 01:16:07;;;;;;;5.18;3.60;;;;;;;8.63;83.52;96216.88;5162279;23;20177;-87
2024/02/26 01:18:11;;;;;;;5.80;3.40;;;;;;;8.66;82.26;96207.97;5162560;23;20232;-88
2024/02/26 01:20:14;;;;;;;3.88;2.95;;;;;;;8.60;81.97;96208.50;5163615;23;20637;-88
2024/02/26 01:22:17;;;;;;;5.13;2.92;;;;;;;8.62;81.61;96209.22;5138564;23;20174;-87
2024/02/26 01:24:20;;;;;;;5.17;3.00;;;;;;;8.64;82.58;96210.69;5137305;23;20178;-87
2024/02/26 01:26:24;;;;;;;4.22;3.00;;;;;;;8.67;82.61;96212.22;5161996;23;21139;-88
2024/02/26 01:28:27;;;;;;;4.90;3.08;;;;;;;8.67;82.53;96217.41;5189622;22;20251;-84
2024/02/26 01:30:32;;;;;;;3.97;2.80;;;;;;;8.72;83.43;96230.78;5161280;23;20224;-83
2024/02/26 01:32:36;;;;;;;3.90;2.85;;;;;;;8.75;82.32;96220.97;5162560;23;20518;-84
2024/02/26 01:34:39;;;;;;;4.43;3.10;;;;;;;8.71;81.39;96221.38;5136883;23;20186;-84
2024/02/26 01:36:44;;;;;;;4.43;2.93;;;;;;;8.71;81.27;96217.00;5163514;23;20582;-83
2024/02/26 01:38:47;;;;;;;5.78;2.83;;;;;;;8.73;81.33;96219.44;5163486;23;21173;-83
2024/02/26 01:40:50;;;;;;;4.43;2.92;;;;;;;8.76;82.10;96224.38;5162881;23;20251;-84
2024/02/26 01:42:53;;;;;;;4.27;2.90;;;;;;;8.77;82.71;96228.63;5138033;23;20178;-84
2024/02/26 01:44:57;;;;;;;4.82;3.28;;;;;;;8.77;82.09;96228.63;5160787;23;20572;-84
2024/02/26 01:47:02;;;;;;;4.53;3.05;;;;;;;8.78;82.47;96228.47;5136038;23;20634;-83
2024/02/26 01:49:06;;;;;;;4.73;3.40;;;;;;;8.79;81.97;96231.88;5136385;23;20857;-84
2024/02/26 01:51:11;;;;;;;5.20;3.17;;;;;;;8.75;82.30;96231.34;5161999;23;20689;-84
2024/02/26 01:53:16;;;;;;;3.75;2.90;;;;;;;8.72;82.37;96231.63;5162026;23;21111;-84
2024/02/26 01:55:20;;;;;;;5.60;3.30;;;;;;;8.73;82.00;96238.44;5136124;23;20213;-84
2024/02/26 01:57:23;;;;;;;4.40;2.83;;;;;;;8.74;81.72;96234.91;5187855;22;20693;-84
2024/02/26 01:59:26;;;;;;;4.57;3.03;;;;;;;8.74;82.13;96231.50;5136907;23;20261;-84
2024/02/26 02:01:31;;;;;;;3.80;2.95;;;;;;;8.76;83.26;96240.78;5135467;23;20621;-84
2024/02/26 02:03:36;;;;;;;4.07;3.30;;;;;;;8.77;82.26;96231.22;5186553;22;20284;-84
2024/02/26 02:05:41;;;;;;;5.00;3.20;;;;;;;8.40;82.29;96198.31;5161252;23;20583;-84
2024/02/26 02:07:46;;;;;;;3.72;3.17;;;;;;;8.28;84.46;96197.59;5161631;23;20184;-84
2024/02/26 02:09:49;;;;;;;6.53;3.03;;;;;;;8.26;85.87;96224.69;5162507;23;20173;-84
2024/02/26 02:11:53;;;;;;;4.47;3.40;;;;;;;8.21;84.54;96209.53;5161576;23;20179;-84
2024/02/26 02:13:56;;;;;;;3.75;2.83;;;;;;;8.20;84.98;96188.88;5160726;23;20179;-83
2024/02/26 02:16:00;;;;;;;5.00;3.10;;;;;;;8.09;83.53;96156.06;5135662;23;20232;-84
2024/02/26 02:18:03;;;;;;;6.18;2.92;;;;;;;8.11;84.54;96179.28;5161339;23;20238;-84
2024/02/26 02:20:15;;;;;;;4.07;2.95;;;;;;;8.13;85.34;96195.56;5136648;23;20231;-84
2024/02/26 02:22:20;;;;;;;4.75;2.90;;;;;;;8.16;84.43;96197.91;5161298;23;20201;-84
2024/02/26 02:24:24;;;;;;;4.75;3.25;;;;;;;8.18;85.66;96196.81;5137032;23;20174;-84
2024/02/26 02:26:27;;;;;;;4.80;3.10;;;;;;;8.23;84.70;96210.19;5135779;23;20607;-84
2024/02/26 02:28:32;;;;;;;4.47;3.00;;;;;;;8.25;84.93;96208.28;5161490;23;20222;-84
2024/02/26 02:30:36;;;;;;;3.88;3.33;;;;;;;8.29;85.57;96220.03;5161168;23;20184;-84
2024/02/26 02:32:40;;;;;;;3.83;2.90;;;;;;;8.34;85.01;96223.03;5136406;23;20173;-84
2024/02/26 02:34:44;;;;;;;3.90;2.70;;;;;;;8.42;85.62;96224.94;5160601;23;20588;-84
2024/02/26 02:36:52;;;;;;;3.92;2.85;;;;;;;8.47;84.54;96241.78;5134598;23;20185;-84
2024/02/26 02:38:57;;;;;;;3.65;2.70;;;;;;;8.53;83.04;96251.63;5161888;23;20178;-88
2024/02/26 02:41:00;;;;;;;4.05;2.50;;;;;;;8.57;84.10;96248.59;5187192;22;20230;-87
2024/02/26 02:43:04;;;;;;;4.20;2.93;;;;;;;8.60;84.07;96252.69;5161681;23;20184;-88
2024/02/26 02:45:08;;;;;;;3.60;2.85;;;;;;;8.60;83.53;96243.13;5136212;23;20580;-89
2024/02/26 02:47:10;;;;;;;5.53;3.03;;;;;;;8.63;82.22;96244.63;5161385;23;20173;-87
2024/02/26 02:49:14;;;;;;;4.95;2.90;;;;;;;8.62;82.51;96250.78;5161107;23;20514;-89
2024/02/26 02:51:18;;;;;;;4.07;2.65;;;;;;;8.60;83.27;96244.88;5136910;23;20638;-87
2024/02/26 02:53:21;;;;;;;3.58;2.45;;;;;;;8.63;82.55;96248.06;5162077;23;20178;-88
2024/02/26 02:55:27;;;;;;;4.03;2.50;;;;;;;8.67;82.16;96246.78;5135620;23;20181;-88
2024/02/26 02:57:30;;;;;;;3.95;2.60;;;;;;;8.71;82.40;96257.75;5135334;23;20716;-87
2024/02/26 02:59:34;;;;;;;3.67;2.28;;;;;;;8.70;79.13;96262.09;5135837;23;20171;-88
2024/02/26 03:01:36;;;;;;;3.08;2.15;;;;;;;8.76;80.31;96260.75;5163039;23;20200;-87
2024/02/26 03:03:39;;;;;;;3.55;2.30;;;;;;;8.83;79.67;96254.06;5138210;23;20229;-89
2024/02/26 03:05:42;;;;;;;4.60;2.10;;;;;;;8.88;79.84;96254.44;5162103;23;20249;-87
2024/02/26 03:07:46;;;;;;;3.40;2.50;;;;;;;8.92;79.76;96261.81;5162857;23;20615;-88
2024/02/26 03:09:49;;;;;;;3.83;2.40;;;;;;;8.95;79.66;96267.56;5138627;23;20594;-89
2024/02/26 03:11:53;;;;;;;2.72;1.90;;;;;;;9.00;79.39;96269.75;5138166;23;20810;-89
2024/02/26 03:13:57;;;;;;;2.93;1.83;;;;;;;9.06;77.58;96267.38;5162617;23;20170;-89
2024/02/26 03:16:05;;;;;;;3.73;2.10;;;;;;;9.09;78.17;96274.91;5137195;23;20580;-89
2024/02/26 03:18:09;;;;;;;3.30;2.27;;;;;;;9.10;78.23;96281.75;5161848;23;20601;-88
2024/02/26 03:20:12;;;;;;;4.77;3.20;;;;;;;9.10;78.31;96279.16;5163430;23;21153;-88
2024/02/26 03:22:16;;;;;;;4.18;2.92;;;;;;;9.08;79.90;96294.09;5137452;23;20631;-87
2024/02/26 03:24:19;;;;;;;3.08;2.50;;;;;;;9.10;79.49;96286.97;5163054;23;20613;-88
2024/02/26 03:26:21;;;;;;;5.93;2.53;;;;;;;9.03;80.52;96274.66;5162470;23;20177;-88
2024/02/26 03:28:26;;;;;;;6.30;2.88;;;;;;;8.91;80.42;96277.56;5162838;23;20580;-88
2024/02/26 03:30:29;;;;;;;3.85;3.10;;;;;;;8.88;80.78;96280.44;5137794;23;20254;-88
2024/02/26 03:32:32;;;;;;;3.20;2.50;;;;;;;8.88;81.66;96291.63;5138982;23;20228;-87
2024/02/26 03:34:36;;;;;;;3.50;2.70;;;;;;;8.88;82.51;96296.03;5163942;23;20170;-88
2024/02/26 03:36:39;;;;;;;4.40;2.83;;;;;;;8.88;83.28;96289.03;5162521;23;20993;-88
2024/02/26 03:38:43;;;;;;;4.10;3.20;;;;;;;8.80;83.08;96294.13;5137665;23;20573;-88
2024/02/26 03:40:46;;;;;;;5.37;3.10;;;;;;;8.79;83.14;96297.66;5161815;23;20181;-87
2024/02/26 03:42:50;;;;;;;3.97;2.60;;;;;;;8.78;84.40;96292.59;5137310;23;20612;-89
2024/02/26 03:44:55;;;;;;;7.43;3.10;;;;;;;8.72;83.64;96287.97;5136812;23;20814;-87
2024/02/26 03:46:58;;;;;;;4.40;2.33;;;;;;;8.56;82.63;96280.72;5136344;23;20257;-88
2024/02/26 03:49:01;;;;;;;3.87;2.90;;;;;;;8.57;85.08;96281.56;5138000;23;20565;-88
2024/02/26 03:51:04;;;;;;;4.30;2.97;;;;;;;8.60;84.82;96296.84;5138398;23;21103;-89
2024/02/26 03:53:08;;;;;;;5.30;2.90;;;;;;;8.62;85.19;96300.16;5137995;23;20590;-87
2024/02/26 03:55:18;;;;;;;4.15;2.85;;;;;;;8.60;85.23;96287.31;5137853;23;20680;-87
2024/02/26 03:57:21;;;;;;;3.60;3.10;;;;;;;8.63;85.19;96293.97;5189606;22;20211;-89
2024/02/26 03:59:24;;;;;;;4.30;3.08;;;;;;;8.66;86.49;96294.53;5163149;23;20276;-88
2024/02/26 04:01:28;;;;;;;4.40;3.23;;;;;;;8.66;84.97;96294.53;5162567;23;20215;-88
2024/02/26 04:03:31;;;;;;;5.72;3.00;;;;;;;8.58;85.31;96276.19;5138194;23;20609;-88
2024/02/26 04:05:35;;;;;;;5.57;3.70;;;;;;;8.52;85.70;96275.94;5162670;23;21912;-88
2024/02/26 04:07:38;;;;;;;4.80;3.30;;;;;;;8.46;87.16;96273.88;5162203;23;20695;-88
2024/02/26 04:09:41;;;;;;;3.97;3.10;;;;;;;8.44;86.96;96270.63;5137334;23;20887;-88
2024/02/26 04:11:45;;;;;;;8.15;4.07;;;;;;;8.47;87.55;96265.16;5162015;23;20212;-88
2024/02/26 04:13:52;;;;;;;4.38;3.17;;;;;;;8.49;87.53;96279.66;5160734;23;20188;-88
2024/02/26 04:15:56;;;;;;;3.70;2.83;;;;;;;8.50;87.91;96270.88;5136125;23;20247;-87
2024/02/26 04:18:00;;;;;;;2.75;2.15;;;;;;;8.52;86.67;96262.94;5137634;23;20174;-88
2024/02/26 04:20:05;;;;;;;4.05;2.20;;;;;;;8.52;84.54;96253.41;5137096;23;20178;-88
2024/02/26 04:22:08;;;;;;;3.78;2.65;;;;;;;8.50;87.22;96244.09;5188537;22;20180;-89
2024/02/26 04:24:12;;;;;;;3.78;2.47;;;;;;;8.42;87.05;96241.38;5136325;23;20182;-89
2024/02/26 04:26:15;;;;;;;3.35;2.40;;;;;;;8.38;88.46;96236.59;5187246;22;20544;-90
2024/02/26 04:28:20;;;;;;;3.03;2.38;;;;;;;8.40;86.61;96235.47;5137085;23;20230;-89
2024/02/26 04:30:23;;;;;;;3.03;2.30;;;;;;;8.47;89.10;96241.78;5162819;23;20518;-88
2024/02/26 04:32:27;;;;;;;5.40;3.40;;;;;;;8.52;89.54;96244.75;5138234;23;20603;-88
2024/02/26 04:34:32;;;;;;;4.47;3.50;;;;;;;8.58;89.62;96245.03;5160777;23;20181;-88
2024/02/26 04:36:36;;;;;;;4.10;3.47;;;;;;;8.56;88.21;96246.13;5136633;23;20178;-88
2024/02/26 04:38:39;;;;;;;5.03;3.00;;;;;;;8.52;88.30;96255.16;5161807;23;20174;-88
2024/02/26 04:40:42;;;;;;;4.22;2.15;;;;;;;8.47;89.19;96254.75;5162213;23;20220;-89
2024/02/26 04:42:44;;;;;;;4.82;2.60;;;;;;;8.49;87.18;96251.06;5162902;23;20201;-89
2024/02/26 04:44:47;;;;;;;4.30;2.97;;;;;;;8.45;89.68;96251.50;5136389;23;20637;-88
2024/02/26 04:46:51;;;;;;;3.60;2.80;;;;;;;8.43;89.88;96245.59;5135798;23;20195;-86
2024/02/26 04:48:54;;;;;;;4.25;3.20;;;;;;;8.45;89.82;96241.91;5137525;23;20178;-87
2024/02/26 04:51:01;;;;;;;7.20;3.80;;;;;;;8.47;90.65;96255.56;5137041;23;20170;-87
2024/02/26 04:53:05;;;;;;;5.00;3.75;;;;;;;8.47;90.12;96241.78;5136179;23;20257;-87
2024/02/26 04:55:09;;;;;;;5.78;3.53;;;;;;;8.50;91.43;96246.69;5137875;23;20198;-87
2024/02/26 04:57:12;;;;;;;4.10;3.10;;;;;;;8.51;91.54;96245.75;5135704;23;20201;-88
2024/02/26 04:59:15;;;;;;;4.90;3.53;;;;;;;8.53;91.87;96239.44;5137566;23;20264;-88
2024/02/26 05:01:19;;;;;;;4.30;3.50;;;;;;;8.55;91.20;96239.28;5134188;23;20277;-87
2024/02/26 05:03:22;;;;;;;6.68;3.35;;;;;;;8.54;91.73;96237.69;5161866;23;20661;-86
2024/02/26 05:05:25;;;;;;;5.80;3.63;;;;;;;8.53;92.10;96221.25;5136253;23;20277;-89
2024/02/26 05:07:30;;;;;;;5.07;3.45;;;;;;;8.56;92.32;96235.75;5136877;23;20680;-89
2024/02/26 05:09:34;;;;;;;4.78;2.92;;;;;;;8.56;92.09;96228.75;5136215;23;20186;-88
2024/02/26 05:11:38;;;;;;;4.85;2.45;;;;;;;8.58;91.94;96223.44;5161949;23;20629;-87
2024/02/26 05:13:45;;;;;;;4.45;2.38;;;;;;;8.58;92.44;96220.84;5187753;22;20183;-88
2024/02/26 05:15:52;;;;;;;2.97;1.48;;;;;;;8.60;92.09;96226.69;5136557;23;20178;-88
2024/02/26 05:17:54;;;;;;;4.32;2.13;;;;;;;8.64;92.00;96223.69;5136209;23;20581;-88
2024/02/26 05:19:58;;;;;;;3.47;1.70;;;;;;;8.64;91.77;96226.28;5137717;23;20704;-87
2024/02/26 05:22:01;;;;;;;3.53;2.15;;;;;;;8.65;93.13;96217.53;5162300;23;20215;-87
2024/02/26 05:24:07;;;;;;;5.05;3.38;;;;;;;8.64;92.46;96215.91;5136518;23;20204;-88
2024/02/26 05:26:10;;;;;;;4.07;2.83;;;;;;;8.59;91.83;96214.69;5161696;23;20223;-87
2024/02/26 05:28:15;;;;;;;3.08;2.47;;;;;;;8.56;91.89;96212.38;5162985;23;20223;-88
2024/02/26 05:30:18;;;;;;;5.18;2.72;;;;;;;8.57;92.84;96219.22;5137520;23;20171;-88
2024/02/26 05:32:22;;;;;;;2.67;2.10;;;;;;;8.60;91.59;96229.31;5161958;23;20177;-87
2024/02/26 05:34:25;;;;;;;3.65;2.30;;;;;;;8.63;92.92;96229.03;5138260;23;20174;-88
2024/02/26 05:36:32;;;;;;;4.07;2.57;;;;;;;8.66;92.24;96216.59;5136425;23;20668;-88
2024/02/26 05:38:36;;;;;;;3.00;2.57;;;;;;;8.66;92.55;96214.00;5161705;23;20572;-88
2024/02/26 05:40:40;;;;;;;3.60;2.58;;;;;;;8.70;91.78;96219.72;5163455;23;20627;-88
2024/02/26 05:42:44;;;;;;;3.33;2.60;;;;;;;8.69;92.14;96220.69;5136302;23;20182;-88
2024/02/26 05:44:48;;;;;;;5.00;3.17;;;;;;;8.71;92.43;96221.38;5136074;23;20192;-89
2024/02/26 05:46:51;;;;;;;3.63;2.40;;;;;;;8.70;91.80;96220.53;5160829;23;20186;-87
2024/02/26 05:48:54;;;;;;;4.55;3.10;;;;;;;8.69;91.48;96216.31;5162603;23;20268;-88
2024/02/26 05:50:57;;;;;;;3.27;2.37;;;;;;;8.68;92.17;96227.66;5162541;23;20177;-87
2024/02/26 05:53:02;;;;;;;4.10;2.75;;;;;;;8.68;92.51;96232.84;5136408;23;20584;-87
2024/02/26 05:55:06;;;;;;;3.73;3.17;;;;;;;8.70;92.22;96230.13;5137615;23;20182;-87
2024/02/26 05:57:11;;;;;;;4.70;3.63;;;;;;;8.70;91.96;96237.91;5136330;23;20586;-88
2024/02/26 05:59:16;;;;;;;5.57;3.70;;;;;;;8.71;92.10;96240.38;5134715;23;20676;-87
2024/02/26 06:01:19;;;;;;;4.28;3.45;;;;;;;8.70;92.43;96237.91;5136048;23;20585;-88
2024/02/26 06:03:22;;;;;;;5.85;5.25;;;;;;;8.71;92.55;96244.75;5162341;23;20583;-87
2024/02/26 06:05:26;;;;;;;6.32;4.22;;;;;;;8.70;92.12;96254.31;5137049;23;20202;-87
2024/02/26 06:07:29;;;;;;;4.88;3.38;;;;;;;8.71;93.11;96268.97;5162070;23;20201;-83
2024/02/26 06:09:32;;;;;;;5.60;3.47;;;;;;;8.71;92.58;96284.56;5135809;23;20191;-83
2024/02/26 06:11:36;;;;;;;4.57;2.85;;;;;;;8.72;93.06;96285.34;5137830;23;20261;-83
2024/02/26 06:13:41;;;;;;;3.17;2.22;;;;;;;8.71;92.81;96294.94;5188166;22;20583;-83
2024/02/26 06:15:44;;;;;;;4.50;2.93;;;;;;;8.70;92.93;96305.47;5135790;23;20261;-83
2024/02/26 06:17:47;;;;;;;3.80;2.58;;;;;;;8.71;92.41;96318.34;5135573;23;20673;-83
2024/02/26 06:19:51;;;;;;;3.80;2.90;;;;;;;8.67;93.82;96329.94;5160770;23;20693;-83
2024/02/26 06:21:54;;;;;;;4.40;3.10;;;;;;;8.70;92.96;96336.66;5136887;23;20201;-84
2024/02/26 06:23:58;;;;;;;4.78;3.10;;;;;;;8.63;93.96;96341.59;5187113;22;20204;-83
2024/02/26 06:26:01;;;;;;;5.03;3.05;;;;;;;8.61;93.69;96347.88;5161507;23;20216;-83
2024/02/26 06:28:05;;;;;;;4.10;2.90;;;;;;;8.64;93.78;96351.00;5136235;23;21164;-83
2024/02/26 06:30:11;;;;;;;5.53;3.35;;;;;;;8.70;93.76;96345.25;5136421;23;20170;-83
2024/02/26 06:32:15;;;;;;;3.30;2.67;;;;;;;8.73;93.23;96350.19;5137625;23;20171;-83
2024/02/26 06:34:18;;;;;;;4.30;3.40;;;;;;;8.76;94.03;96343.91;5136393;23;20573;-83
2024/02/26 06:36:21;;;;;;;5.45;3.80;;;;;;;8.61;94.31;96329.69;5135737;23;20270;-83
2024/02/26 06:38:25;;;;;;;5.15;3.08;;;;;;;8.39;94.18;96322.16;5161355;23;20283;-85
2024/02/26 06:40:28;;;;;;;4.75;3.38;;;;;;;8.39;94.28;96342.94;5135600;23;20182;-82
2024/02/26 06:42:31;;;;;;;4.03;2.80;;;;;;;8.45;96.10;96345.81;5113440;23;20241;-82
2024/02/26 06:44:35;;;;;;;6.87;3.37;;;;;;;8.51;96.37;96354.84;5111697;23;20205;-81
2024/02/26 06:46:39;;;;;;;4.75;3.35;;;;;;;8.57;96.05;96359.50;5137117;23;20596;-81
2024/02/26 06:48:42;;;;;;;4.60;3.10;;;;;;;8.61;96.54;96356.47;5137930;23;20177;-82
2024/02/26 06:50:46;;;;;;;4.65;3.03;;;;;;;8.64;95.87;96353.59;5162261;23;20663;-81
2024/02/26 06:52:49;;;;;;;3.78;3.00;;;;;;;8.68;95.05;96343.78;5138158;23;20568;-81
2024/02/26 06:54:52;;;;;;;4.43;2.93;;;;;;;8.71;95.26;96349.50;5163918;23;20552;-82
2024/02/26 06:56:56;;;;;;;3.65;2.63;;;;;;;8.77;94.88;96342.97;5136695;23;20577;-82
2024/02/26 06:59:00;;;;;;;3.25;2.65;;;;;;;8.81;93.62;96352.09;5137765;23;20178;-81
2024/02/26 07:01:03;;;;;;;4.80;2.83;;;;;;;8.82;94.49;96338.97;5111747;23;20182;-83
2024/02/26 07:03:08;;;;;;;4.93;3.23;;;;;;;8.82;94.35;96344.19;5111907;23;21094;-84
2024/02/26 07:05:12;;;;;;;4.00;2.97;;;;;;;8.84;93.50;96344.03;5137180;23;20609;-83
2024/02/26 07:07:17;;;;;;;8.07;6.10;;;;;;;8.87;94.68;96344.59;5134190;23;20624;-83
2024/02/26 07:09:21;;;;;;;25.00;18.02;;;;;;;8.92;95.89;96358.81;5108827;23;20565;-83
2024/02/26 07:11:24;;;;;;;6.97;4.55;;;;;;;8.95;95.79;96350.75;5135626;23;20180;-81
2024/02/26 07:13:27;;;;;;;4.90;4.00;;;;;;;9.00;95.00;96355.53;5162708;23;20180;-82
2024/02/26 07:15:31;;;;;;;3.60;3.20;;;;;;;9.02;95.94;96357.03;5134956;23;20178;-82
2024/02/26 07:17:35;;;;;;;4.00;3.50;;;;;;;9.06;94.96;96352.38;5135930;23;20178;-86
2024/02/26 07:19:43;;;;;;;4.83;3.47;;;;;;;9.08;95.62;96360.84;5112436;23;20635;-86
2024/02/26 07:21:46;;;;;;;3.88;3.17;;;;;;;9.09;95.68;96360.72;5112491;23;20604;-85
2024/02/26 07:23:49;;;;;;;5.57;2.80;;;;;;;9.12;95.77;96362.22;5137253;23;20209;-85
2024/02/26 07:25:53;;;;;;;5.50;3.22;;;;;;;9.13;94.52;96377.69;5163474;23;20552;-85
2024/02/26 07:27:56;;;;;;;3.83;2.80;;;;;;;9.14;94.84;96379.34;5112425;23;20183;-85
2024/02/26 07:29:59;;;;;;;6.63;4.03;;;;;;;9.18;94.03;96388.50;5136970;23;20178;-85
2024/02/26 07:32:03;;;;;;;3.80;3.25;;;;;;;9.18;94.72;96380.69;5112305;23;20588;-84
2024/02/26 07:34:06;;;;;;;5.47;3.53;;;;;;;9.18;93.73;96378.09;5163567;23;20242;-84
2024/02/26 07:36:11;;;;;;;4.27;3.10;;;;;;;9.20;94.36;96376.19;5161455;23;21001;-85
2024/02/26 07:38:14;;;;;;;4.30;3.30;;;;;;;9.24;94.10;96382.75;5135833;23;20577;-85
2024/02/26 07:40:33;;;;;;;5.07;3.53;;;;;;;9.23;94.90;96385.47;5149508;23;20185;-85
2024/02/26 07:42:37;;;;;;;5.10;3.75;;;;;;;9.25;93.75;96388.78;5162150;23;20694;-84
2024/02/26 07:44:42;;;;;;;4.57;2.90;;;;;;;9.27;94.95;96384.25;5135010;23;20209;-85
2024/02/26 07:46:46;;;;;;;6.85;3.90;;;;;;;9.31;94.32;96396.03;5162174;23;20165;-86
2024/02/26 07:48:49;;;;;;;4.40;3.35;;;;;;;9.38;95.15;96399.69;5163931;23;20205;-86
2024/02/26 07:50:53;;;;;;;6.03;3.97;;;;;;;9.40;95.37;96394.22;5162892;23;20178;-85
2024/02/26 07:52:58;;;;;;;4.27;2.90;;;;;;;9.43;95.06;96393.13;5139284;23;20611;-85
2024/02/26 07:55:01;;;;;;;4.23;3.23;;;;;;;9.44;94.97;96402.56;5163469;23;20587;-85
2024/02/26 07:57:09;;;;;;;4.37;3.20;;;;;;;9.45;95.53;96406.81;5162480;23;20564;-84
2024/02/26 07:59:13;;;;;;;5.95;3.58;;;;;;;9.48;94.66;96404.75;5189757;22;20579;-85
2024/02/26 08:01:16;;;;;;;5.60;4.10;;;;;;;9.53;94.83;96412.13;5163640;23;20569;-85
2024/02/26 08:03:19;;;;;;;6.43;4.17;;;;;;;9.54;94.47;96419.00;5139311;23;20202;-86
2024/02/26 08:05:22;;;;;;;5.60;4.00;;;;;;;9.52;94.21;96419.13;5138533;23;20609;-85
2024/02/26 08:07:26;;;;;;;5.68;4.15;;;;;;;9.47;93.51;96415.28;5162279;23;20272;-85
2024/02/26 08:09:30;;;;;;;6.57;4.70;;;;;;;9.38;94.11;96408.31;5163681;23;20614;-86
2024/02/26 08:11:34;;;;;;;7.10;4.95;;;;;;;9.38;93.64;96416.13;5164088;23;20174;-85
2024/02/26 08:13:37;;;;;;;6.47;4.80;;;;;;;9.34;94.62;96414.78;5136844;23;20487;-85
2024/02/26 08:15:40;;;;;;;6.00;5.00;;;;;;;9.33;95.29;96413.13;5138179;23;20627;-85
2024/02/26 08:17:42;;;;;;;8.18;5.25;;;;;;;9.37;95.62;96419.69;5163642;23;20544;-85
2024/02/26 08:19:46;;;;;;;7.50;5.10;;;;;;;9.41;95.05;96418.44;5138749;23;20602;-85
2024/02/26 08:21:48;;;;;;;6.60;5.53;;;;;;;9.31;95.97;96415.06;5161728;23;20573;-85
2024/02/26 08:23:51;;;;;;;7.47;5.63;;;;;;;9.31;96.43;96415.06;5133728;23;20604;-89
2024/02/26 08:25:56;;;;;;;7.47;5.80;;;;;;;9.39;96.67;96421.19;5162878;23;20611;-87
2024/02/26 08:27:59;;;;;;;6.10;5.20;;;;;;;9.46;97.01;96419.69;5161212;23;20682;-83
2024/02/26 08:30:03;;;;;;;6.57;5.10;;;;;;;9.55;97.13;96415.44;5137971;23;21108;-83
2024/02/26 08:32:07;;;;;;;5.97;4.50;;;;;;;9.60;96.19;96421.03;5163456;23;20230;-83
2024/02/26 08:34:10;;;;;;;7.90;5.60;;;;;;;9.66;96.75;96434.31;5161767;23;20575;-82
2024/02/26 08:36:14;;;;;;;5.00;4.50;;;;;;;9.72;96.05;96423.34;5136604;23;20581;-82
2024/02/26 08:38:17;;;;;;;7.57;5.40;;;;;;;9.77;96.29;96434.13;5137947;23;20211;-82
2024/02/26 08:40:21;;;;;;;9.45;6.30;;;;;;;9.87;97.05;96438.38;5190056;22;20180;-82
2024/02/26 08:42:25;;;;;;;6.97;5.80;;;;;;;9.91;96.82;96444.13;5163412;23;20173;-82
2024/02/26 08:44:29;;;;;;;6.13;4.87;;;;;;;9.90;96.80;96442.47;5188368;22;20695;-82
2024/02/26 08:46:32;;;;;;;5.60;4.33;;;;;;;9.94;96.29;96441.28;5188161;22;20606;-82
2024/02/26 08:48:35;;;;;;;5.03;4.00;;;;;;;9.99;95.73;96439.88;5163816;23;20584;-82
2024/02/26 08:50:38;;;;;;;5.13;4.40;;;;;;;10.00;95.24;96438.09;5138319;23;20588;-82
2024/02/26 08:52:41;;;;;;;5.10;4.17;;;;;;;9.91;95.02;96426.72;5190299;22;20606;-82
2024/02/26 08:54:45;;;;;;;4.90;4.40;;;;;;;9.90;94.64;96435.47;5137837;23;20668;-82
2024/02/26 08:56:48;;;;;;;7.63;5.00;;;;;;;9.96;94.91;96421.94;5162849;23;20613;-82
2024/02/26 08:58:53;;;;;;;9.07;5.47;;;;;;;10.00;95.30;96425.91;5163317;23;20588;-82
2024/02/26 09:00:56;;;;;;;7.07;5.27;;;;;;;10.03;94.84;96430.81;5136845;23;20577;-83
2024/02/26 09:02:59;;;;;;;5.50;4.90;;;;;;;10.10;94.17;96434.50;5190076;22;21114;-82
2024/02/26 09:05:07;;;;;;;5.20;4.63;;;;;;;10.18;95.69;96445.03;5138042;23;20940;-82
2024/02/26 09:07:11;;;;;;;6.07;4.83;;;;;;;10.27;95.30;96438.97;5162236;23;21309;-82
2024/02/26 09:09:14;;;;;;;6.60;4.70;;;;;;;10.38;95.61;96446.59;5189879;22;20587;-82
2024/02/26 09:11:18;;;;;;;6.80;5.53;;;;;;;10.46;95.70;96444.06;5163449;23;21180;-82
2024/02/26 09:13:21;;;;;;;7.80;5.50;;;;;;;10.54;95.59;96444.16;5188417;22;20575;-82
2024/02/26 09:15:26;;;;;;;7.10;5.60;;;;;;;10.62;97.09;96439.06;5135220;23;21334;-83
2024/02/26 09:17:29;;;;;;;6.80;4.97;;;;;;;10.70;96.97;96446.97;5136405;23;20664;-82
2024/02/26 09:19:33;;;;;;;8.17;5.17;;;;;;;10.77;95.70;96433.22;5162313;23;21149;-84
2024/02/26 09:21:36;;;;;;;6.77;5.00;;;;;;;10.85;95.30;96439.34;5161899;23;20572;-84
2024/02/26 09:23:40;;;;;;;8.03;5.33;;;;;;;10.91;94.59;96449.16;5162038;23;20569;-85
2024/02/26 09:25:43;;;;;;;6.67;5.20;;;;;;;10.95;94.47;96445.31;5162102;23;20675;-83
2024/02/26 09:27:47;;;;;;;6.90;4.90;;;;;;;11.01;93.40;96452.53;5137497;23;20631;-84
2024/02/26 09:29:50;;;;;;;5.27;4.10;;;;;;;11.04;91.52;96449.66;5162771;23;21092;-83
2024/02/26 09:31:55;;;;;;;4.77;4.27;;;;;;;11.07;92.32;96451.16;5160473;23;20604;-83
2024/02/26 09:33:58;;;;;;;5.23;4.37;;;;;;;11.06;91.20;96450.31;5137715;23;20717;-83
2024/02/26 09:36:06;;;;;;;7.73;4.60;;;;;;;11.04;91.79;96441.00;5188575;22;20586;-83
2024/02/26 09:38:09;;;;;;;5.53;4.40;;;;;;;10.97;89.94;96443.38;5161247;23;20724;-83
2024/02/26 09:40:12;;;;;;;6.00;4.60;;;;;;;10.96;90.64;96444.34;5186178;22;20633;-83
2024/02/26 09:42:16;;;;;;;6.93;4.23;;;;;;;10.95;90.79;96444.50;5187985;22;20590;-83
2024/02/26 09:44:21;;;;;;;5.30;4.00;;;;;;;10.95;90.38;96447.91;5137112;23;20569;-83
2024/02/26 09:46:25;;;;;;;5.53;3.83;;;;;;;11.04;90.02;96449.66;5188443;22;21372;-84
2024/02/26 09:48:30;;;;;;;6.70;4.10;;;;;;;11.14;90.01;96449.56;5137421;23;20616;-83
2024/02/26 09:50:34;;;;;;;6.10;4.73;;;;;;;11.20;89.76;96447.22;5162819;23;20626;-83